sensor_id;sensor_type;location;lat;lon;timestamp;P1;durP1;ratioP1;P2;durP2;ratioP2
20393;SDS011;10356;50.544;9.642;2023-02-22T00:01:04;96.80;;;14.63;;
20393;SDS011;10356;50.544;9.642;2023-02-22T00:03:43;73.53;;;12.33;;
20393;SDS011;10356;50.544;9.642;2023-02-22T00:06:15;51.13;;;12.70;;
20393;SDS011;10356;50.544;9.642;2023-02-22T00:08:43;39.60;;;11.77;;
20393;SDS011;10356;50.544;9.642;2023-02-22T00:11:09;60.33;;;13.20;;
20393;SDS011;10356;50.544;9.642;2023-02-22T00:13:38;31.40;;;10.70;;
20393;SDS011;10356;50.544;9.642;2023-02-22T00:16:09;40.77;;;11.67;;
20393;SDS011;10356;50.544;9.642;2023-02-22T00:18:40;35.23;;;10.67;;
20393;SDS011;10356;50.544;9.642;2023-02-22T00:21:08;31.70;;;10.13;;
20393;SDS011;10356;50.544;9.642;2023-02-22T00:23:38;27.43;;;10.63;;
20393;SDS011;10356;50.544;9.642;2023-02-22T00:26:07;16.70;;;10.03;;
20393;SDS011;10356;50.544;9.642;2023-02-22T00:28:34;17.90;;;9.40;;
20393;SDS011;10356;50.544;9.642;2023-02-22T00:31:01;11.33;;;8.33;;
20393;SDS011;10356;50.544;9.642;2023-02-22T00:33:30;11.07;;;7.87;;
20393;SDS011;10356;50.544;9.642;2023-02-22T00:35:57;16.83;;;9.33;;
20393;SDS011;10356;50.544;9.642;2023-02-22T00:38:24;13.07;;;8.80;;
20393;SDS011;10356;50.544;9.642;2023-02-22T00:40:50;15.90;;;8.80;;
20393;SDS011;10356;50.544;9.642;2023-02-22T00:43:17;13.93;;;9.20;;
20393;SDS011;10356;50.544;9.642;2023-02-22T00:45:43;15.03;;;10.03;;
20393;SDS011;10356;50.544;9.642;2023-02-22T00:48:10;16.77;;;9.33;;
20393;SDS011;10356;50.544;9.642;2023-02-22T00:50:38;18.27;;;10.43;;
20393;SDS011;10356;50.544;9.642;2023-02-22T00:53:05;20.43;;;11.20;;
20393;SDS011;10356;50.544;9.642;2023-02-22T00:55:33;21.13;;;11.60;;
20393;SDS011;10356;50.544;9.642;2023-02-22T00:58:02;32.83;;;12.53;;
20393;SDS011;10356;50.544;9.642;2023-02-22T01:00:30;35.63;;;13.60;;
20393;SDS011;10356;50.544;9.642;2023-02-22T01:02:59;28.43;;;12.03;;
20393;SDS011;10356;50.544;9.642;2023-02-22T01:05:26;55.90;;;13.50;;
20393;SDS011;10356;50.544;9.642;2023-02-22T01:07:56;20.70;;;10.80;;
20393;SDS011;10356;50.544;9.642;2023-02-22T01:10:25;43.77;;;11.60;;
20393;SDS011;10356;50.544;9.642;2023-02-22T01:12:54;45.60;;;10.37;;
20393;SDS011;10356;50.544;9.642;2023-02-22T01:15:21;46.20;;;9.90;;
20393;SDS011;10356;50.544;9.642;2023-02-22T01:17:51;54.40;;;10.07;;
20393;SDS011;10356;50.544;9.642;2023-02-22T01:20:18;39.70;;;8.37;;
20393;SDS011;10356;50.544;9.642;2023-02-22T01:22:48;53.87;;;9.43;;
20393;SDS011;10356;50.544;9.642;2023-02-22T01:25:19;29.40;;;7.00;;
20393;SDS011;10356;50.544;9.642;2023-02-22T01:27:47;47.03;;;8.10;;
20393;SDS011;10356;50.544;9.642;2023-02-22T01:30:14;47.73;;;8.07;;
20393;SDS011;10356;50.544;9.642;2023-02-22T01:32:43;26.97;;;6.90;;
20393;SDS011;10356;50.544;9.642;2023-02-22T01:35:10;26.93;;;7.90;;
20393;SDS011;10356;50.544;9.642;2023-02-22T01:37:39;40.17;;;7.57;;
20393;SDS011;10356;50.544;9.642;2023-02-22T01:40:13;31.10;;;7.83;;
20393;SDS011;10356;50.544;9.642;2023-02-22T01:42:43;23.30;;;6.70;;
20393;SDS011;10356;50.544;9.642;2023-02-22T01:48:12;35.20;;;7.20;;
20393;SDS011;10356;50.544;9.642;2023-02-22T01:50:42;15.93;;;6.33;;
20393;SDS011;10356;50.544;9.642;2023-02-22T01:53:12;16.40;;;6.87;;
20393;SDS011;10356;50.544;9.642;2023-02-22T01:55:42;15.53;;;7.10;;
20393;SDS011;10356;50.544;9.642;2023-02-22T01:58:12;23.90;;;7.80;;
20393;SDS011;10356;50.544;9.642;2023-02-22T02:00:41;17.73;;;7.60;;
20393;SDS011;10356;50.544;9.642;2023-02-22T02:03:10;36.27;;;8.77;;
20393;SDS011;10356;50.544;9.642;2023-02-22T02:05:41;36.60;;;9.07;;
20393;SDS011;10356;50.544;9.642;2023-02-22T02:08:11;41.73;;;9.30;;
20393;SDS011;10356;50.544;9.642;2023-02-22T02:10:47;119.83;;;14.87;;
20393;SDS011;10356;50.544;9.642;2023-02-22T02:13:15;64.70;;;12.47;;
20393;SDS011;10356;50.544;9.642;2023-02-22T02:15:42;42.87;;;11.57;;
20393;SDS011;10356;50.544;9.642;2023-02-22T02:18:09;42.37;;;11.37;;
20393;SDS011;10356;50.544;9.642;2023-02-22T02:20:38;71.47;;;12.87;;
20393;SDS011;10356;50.544;9.642;2023-02-22T02:23:20;62.20;;;11.43;;
20393;SDS011;10356;50.544;9.642;2023-02-22T02:26:12;81.43;;;11.87;;
20393;SDS011;10356;50.544;9.642;2023-02-22T02:32:08;73.10;;;10.83;;
20393;SDS011;10356;50.544;9.642;2023-02-22T02:34:48;25.57;;;9.43;;
20393;SDS011;10356;50.544;9.642;2023-02-22T02:37:20;28.13;;;9.93;;
20393;SDS011;10356;50.544;9.642;2023-02-22T02:39:55;26.43;;;9.07;;
20393;SDS011;10356;50.544;9.642;2023-02-22T02:42:34;20.27;;;9.53;;
20393;SDS011;10356;50.544;9.642;2023-02-22T02:45:07;46.10;;;11.03;;
20393;SDS011;10356;50.544;9.642;2023-02-22T02:47:39;20.03;;;8.40;;
20393;SDS011;10356;50.544;9.642;2023-02-22T02:50:13;15.70;;;8.20;;
20393;SDS011;10356;50.544;9.642;2023-02-22T02:52:44;23.07;;;8.50;;
20393;SDS011;10356;50.544;9.642;2023-02-22T02:55:11;19.80;;;7.10;;
20393;SDS011;10356;50.544;9.642;2023-02-22T02:57:39;17.97;;;8.47;;
20393;SDS011;10356;50.544;9.642;2023-02-22T03:00:06;21.17;;;7.70;;
20393;SDS011;10356;50.544;9.642;2023-02-22T03:02:49;24.03;;;7.50;;
20393;SDS011;10356;50.544;9.642;2023-02-22T03:05:35;18.80;;;7.60;;
20393;SDS011;10356;50.544;9.642;2023-02-22T03:08:12;10.67;;;7.33;;
20393;SDS011;10356;50.544;9.642;2023-02-22T03:10:47;11.40;;;7.60;;
20393;SDS011;10356;50.544;9.642;2023-02-22T03:13:24;10.73;;;7.60;;
20393;SDS011;10356;50.544;9.642;2023-02-22T03:15:59;11.83;;;7.50;;
20393;SDS011;10356;50.544;9.642;2023-02-22T03:18:41;10.57;;;7.27;;
20393;SDS011;10356;50.544;9.642;2023-02-22T03:21:18;10.37;;;7.07;;
20393;SDS011;10356;50.544;9.642;2023-02-22T03:23:50;10.80;;;7.03;;
20393;SDS011;10356;50.544;9.642;2023-02-22T03:26:30;11.90;;;8.00;;
20393;SDS011;10356;50.544;9.642;2023-02-22T03:29:03;13.80;;;7.23;;
20393;SDS011;10356;50.544;9.642;2023-02-22T03:31:34;18.90;;;8.23;;
20393;SDS011;10356;50.544;9.642;2023-02-22T03:34:05;16.20;;;8.80;;
20393;SDS011;10356;50.544;9.642;2023-02-22T03:36:37;25.90;;;10.40;;
20393;SDS011;10356;50.544;9.642;2023-02-22T03:39:08;14.57;;;8.23;;
20393;SDS011;10356;50.544;9.642;2023-02-22T03:41:40;20.90;;;8.47;;
20393;SDS011;10356;50.544;9.642;2023-02-22T03:44:13;30.17;;;9.30;;
20393;SDS011;10356;50.544;9.642;2023-02-22T03:46:43;63.10;;;11.03;;
20393;SDS011;10356;50.544;9.642;2023-02-22T03:49:16;19.77;;;8.70;;
20393;SDS011;10356;50.544;9.642;2023-02-22T03:51:48;66.83;;;9.33;;
20393;SDS011;10356;50.544;9.642;2023-02-22T03:54:14;34.17;;;8.80;;
20393;SDS011;10356;50.544;9.642;2023-02-22T03:56:42;76.03;;;8.63;;
20393;SDS011;10356;50.544;9.642;2023-02-22T03:59:14;38.23;;;8.20;;
20393;SDS011;10356;50.544;9.642;2023-02-22T04:01:41;36.63;;;8.07;;
20393;SDS011;10356;50.544;9.642;2023-02-22T04:04:07;30.23;;;8.20;;
20393;SDS011;10356;50.544;9.642;2023-02-22T04:06:35;53.90;;;8.27;;
20393;SDS011;10356;50.544;9.642;2023-02-22T04:09:01;59.40;;;9.90;;
20393;SDS011;10356;50.544;9.642;2023-02-22T04:11:28;34.47;;;8.47;;
20393;SDS011;10356;50.544;9.642;2023-02-22T04:13:54;73.87;;;12.43;;
20393;SDS011;10356;50.544;9.642;2023-02-22T04:16:22;39.47;;;7.57;;
20393;SDS011;10356;50.544;9.642;2023-02-22T04:18:48;37.07;;;8.10;;
20393;SDS011;10356;50.544;9.642;2023-02-22T04:21:15;35.00;;;9.03;;
20393;SDS011;10356;50.544;9.642;2023-02-22T04:23:43;24.43;;;7.60;;
20393;SDS011;10356;50.544;9.642;2023-02-22T04:26:09;22.27;;;6.13;;
20393;SDS011;10356;50.544;9.642;2023-02-22T04:28:35;42.53;;;7.53;;
20393;SDS011;10356;50.544;9.642;2023-02-22T04:31:02;65.70;;;9.20;;
20393;SDS011;10356;50.544;9.642;2023-02-22T04:33:28;19.87;;;6.60;;
20393;SDS011;10356;50.544;9.642;2023-02-22T04:35:55;20.10;;;6.77;;
20393;SDS011;10356;50.544;9.642;2023-02-22T04:38:22;28.33;;;7.50;;
20393;SDS011;10356;50.544;9.642;2023-02-22T04:40:51;40.93;;;8.13;;
20393;SDS011;10356;50.544;9.642;2023-02-22T04:43:18;43.53;;;8.27;;
20393;SDS011;10356;50.544;9.642;2023-02-22T04:45:44;25.10;;;7.87;;
20393;SDS011;10356;50.544;9.642;2023-02-22T04:48:11;29.60;;;8.00;;
20393;SDS011;10356;50.544;9.642;2023-02-22T04:50:37;30.90;;;7.93;;
20393;SDS011;10356;50.544;9.642;2023-02-22T04:53:04;14.50;;;7.17;;
20393;SDS011;10356;50.544;9.642;2023-02-22T04:55:31;45.73;;;7.73;;
20393;SDS011;10356;50.544;9.642;2023-02-22T04:57:59;15.63;;;6.80;;
20393;SDS011;10356;50.544;9.642;2023-02-22T05:00:25;52.37;;;9.13;;
20393;SDS011;10356;50.544;9.642;2023-02-22T05:02:52;28.73;;;8.07;;
20393;SDS011;10356;50.544;9.642;2023-02-22T05:05:19;54.73;;;9.43;;
20393;SDS011;10356;50.544;9.642;2023-02-22T05:07:47;23.27;;;8.13;;
20393;SDS011;10356;50.544;9.642;2023-02-22T05:10:13;35.17;;;8.70;;
20393;SDS011;10356;50.544;9.642;2023-02-22T05:12:40;49.27;;;8.57;;
20393;SDS011;10356;50.544;9.642;2023-02-22T05:15:08;114.67;;;11.60;;
20393;SDS011;10356;50.544;9.642;2023-02-22T05:17:35;49.50;;;9.20;;
20393;SDS011;10356;50.544;9.642;2023-02-22T05:20:02;58.67;;;9.07;;
20393;SDS011;10356;50.544;9.642;2023-02-22T05:22:32;57.73;;;8.07;;
20393;SDS011;10356;50.544;9.642;2023-02-22T05:25:00;57.60;;;9.87;;
20393;SDS011;10356;50.544;9.642;2023-02-22T05:27:27;92.60;;;10.33;;
20393;SDS011;10356;50.544;9.642;2023-02-22T05:29:53;103.93;;;11.43;;
20393;SDS011;10356;50.544;9.642;2023-02-22T05:32:21;116.83;;;10.93;;
20393;SDS011;10356;50.544;9.642;2023-02-22T05:34:47;211.83;;;14.43;;
20393;SDS011;10356;50.544;9.642;2023-02-22T05:37:14;176.17;;;13.60;;
20393;SDS011;10356;50.544;9.642;2023-02-22T05:39:40;214.63;;;15.57;;
20393;SDS011;10356;50.544;9.642;2023-02-22T05:42:07;235.27;;;15.57;;
20393;SDS011;10356;50.544;9.642;2023-02-22T05:44:33;56.23;;;8.57;;
20393;SDS011;10356;50.544;9.642;2023-02-22T05:47:00;98.33;;;9.77;;
20393;SDS011;10356;50.544;9.642;2023-02-22T05:49:28;152.13;;;13.57;;
20393;SDS011;10356;50.544;9.642;2023-02-22T05:51:54;213.00;;;17.33;;
20393;SDS011;10356;50.544;9.642;2023-02-22T05:54:23;152.50;;;13.47;;
20393;SDS011;10356;50.544;9.642;2023-02-22T05:56:50;129.37;;;11.77;;
20393;SDS011;10356;50.544;9.642;2023-02-22T05:59:16;88.03;;;10.53;;
20393;SDS011;10356;50.544;9.642;2023-02-22T06:01:43;53.87;;;8.87;;
20393;SDS011;10356;50.544;9.642;2023-02-22T06:04:09;129.50;;;13.13;;
20393;SDS011;10356;50.544;9.642;2023-02-22T06:06:37;66.20;;;10.00;;
20393;SDS011;10356;50.544;9.642;2023-02-22T06:09:03;68.50;;;10.20;;
20393;SDS011;10356;50.544;9.642;2023-02-22T06:11:30;86.37;;;10.20;;
20393;SDS011;10356;50.544;9.642;2023-02-22T06:13:56;141.73;;;13.30;;
20393;SDS011;10356;50.544;9.642;2023-02-22T06:16:23;143.17;;;13.00;;
20393;SDS011;10356;50.544;9.642;2023-02-22T06:18:49;101.43;;;12.17;;
20393;SDS011;10356;50.544;9.642;2023-02-22T06:21:16;69.67;;;11.07;;
20393;SDS011;10356;50.544;9.642;2023-02-22T06:23:43;101.50;;;12.50;;
20393;SDS011;10356;50.544;9.642;2023-02-22T06:26:10;211.30;;;18.17;;
20393;SDS011;10356;50.544;9.642;2023-02-22T06:28:36;245.20;;;18.20;;
20393;SDS011;10356;50.544;9.642;2023-02-22T06:31:03;137.40;;;14.40;;
20393;SDS011;10356;50.544;9.642;2023-02-22T06:33:30;196.17;;;17.47;;
20393;SDS011;10356;50.544;9.642;2023-02-22T06:35:56;225.30;;;18.87;;
20393;SDS011;10356;50.544;9.642;2023-02-22T06:38:23;95.67;;;14.30;;
20393;SDS011;10356;50.544;9.642;2023-02-22T06:40:53;194.40;;;17.13;;
20393;SDS011;10356;50.544;9.642;2023-02-22T06:43:20;179.47;;;15.73;;
20393;SDS011;10356;50.544;9.642;2023-02-22T06:45:46;89.63;;;12.70;;
20393;SDS011;10356;50.544;9.642;2023-02-22T06:48:13;213.90;;;20.93;;
20393;SDS011;10356;50.544;9.642;2023-02-22T06:50:39;168.30;;;17.33;;
20393;SDS011;10356;50.544;9.642;2023-02-22T06:53:06;136.83;;;14.77;;
20393;SDS011;10356;50.544;9.642;2023-02-22T06:55:33;112.13;;;13.87;;
20393;SDS011;10356;50.544;9.642;2023-02-22T06:58:02;204.33;;;17.17;;
20393;SDS011;10356;50.544;9.642;2023-02-22T07:00:30;203.73;;;16.13;;
20393;SDS011;10356;50.544;9.642;2023-02-22T07:02:57;83.97;;;13.03;;
20393;SDS011;10356;50.544;9.642;2023-02-22T07:05:25;88.47;;;13.97;;
20393;SDS011;10356;50.544;9.642;2023-02-22T07:07:52;50.43;;;11.07;;
20393;SDS011;10356;50.544;9.642;2023-02-22T07:10:22;103.40;;;13.17;;
20393;SDS011;10356;50.544;9.642;2023-02-22T07:12:50;65.27;;;11.87;;
20393;SDS011;10356;50.544;9.642;2023-02-22T07:15:19;86.83;;;13.27;;
20393;SDS011;10356;50.544;9.642;2023-02-22T07:17:47;60.90;;;11.23;;
20393;SDS011;10356;50.544;9.642;2023-02-22T07:20:14;39.47;;;10.77;;
20393;SDS011;10356;50.544;9.642;2023-02-22T07:22:41;60.63;;;14.27;;
20393;SDS011;10356;50.544;9.642;2023-02-22T07:25:08;67.17;;;12.80;;
20393;SDS011;10356;50.544;9.642;2023-02-22T07:27:36;79.27;;;35.87;;
20393;SDS011;10356;50.544;9.642;2023-02-22T07:30:03;43.57;;;19.13;;
20393;SDS011;10356;50.544;9.642;2023-02-22T07:32:32;78.63;;;13.13;;
20393;SDS011;10356;50.544;9.642;2023-02-22T07:34:58;47.70;;;11.30;;
20393;SDS011;10356;50.544;9.642;2023-02-22T07:37:26;44.70;;;14.23;;
20393;SDS011;10356;50.544;9.642;2023-02-22T07:39:53;132.67;;;12.63;;
20393;SDS011;10356;50.544;9.642;2023-02-22T07:42:19;102.23;;;24.57;;
20393;SDS011;10356;50.544;9.642;2023-02-22T07:44:46;200.80;;;92.00;;
20393;SDS011;10356;50.544;9.642;2023-02-22T07:47:12;216.27;;;24.07;;
20393;SDS011;10356;50.544;9.642;2023-02-22T07:49:40;103.30;;;13.77;;
20393;SDS011;10356;50.544;9.642;2023-02-22T07:52:07;119.20;;;15.30;;
20393;SDS011;10356;50.544;9.642;2023-02-22T07:54:33;107.40;;;14.43;;
20393;SDS011;10356;50.544;9.642;2023-02-22T07:56:59;158.27;;;17.93;;
20393;SDS011;10356;50.544;9.642;2023-02-22T07:59:27;147.90;;;26.93;;
20393;SDS011;10356;50.544;9.642;2023-02-22T08:01:53;181.30;;;19.00;;
20393;SDS011;10356;50.544;9.642;2023-02-22T08:04:20;174.53;;;17.30;;
20393;SDS011;10356;50.544;9.642;2023-02-22T08:06:48;201.63;;;16.20;;
20393;SDS011;10356;50.544;9.642;2023-02-22T08:09:14;100.90;;;14.07;;
20393;SDS011;10356;50.544;9.642;2023-02-22T08:11:41;78.07;;;11.77;;
20393;SDS011;10356;50.544;9.642;2023-02-22T08:14:07;162.27;;;15.70;;
20393;SDS011;10356;50.544;9.642;2023-02-22T08:16:33;113.60;;;14.60;;
20393;SDS011;10356;50.544;9.642;2023-02-22T08:19:00;50.53;;;12.10;;
20393;SDS011;10356;50.544;9.642;2023-02-22T08:21:26;88.53;;;12.17;;
20393;SDS011;10356;50.544;9.642;2023-02-22T08:23:55;99.77;;;13.43;;
20393;SDS011;10356;50.544;9.642;2023-02-22T08:26:22;66.70;;;14.90;;
20393;SDS011;10356;50.544;9.642;2023-02-22T08:28:49;93.80;;;12.03;;
20393;SDS011;10356;50.544;9.642;2023-02-22T08:31:16;110.83;;;12.77;;
20393;SDS011;10356;50.544;9.642;2023-02-22T08:33:42;71.87;;;11.83;;
20393;SDS011;10356;50.544;9.642;2023-02-22T08:36:12;154.50;;;14.03;;
20393;SDS011;10356;50.544;9.642;2023-02-22T08:38:39;147.23;;;25.10;;
20393;SDS011;10356;50.544;9.642;2023-02-22T08:41:07;88.27;;;23.47;;
20393;SDS011;10356;50.544;9.642;2023-02-22T08:43:33;107.77;;;13.53;;
20393;SDS011;10356;50.544;9.642;2023-02-22T08:46:00;152.37;;;14.27;;
20393;SDS011;10356;50.544;9.642;2023-02-22T08:48:26;90.13;;;11.43;;
20393;SDS011;10356;50.544;9.642;2023-02-22T08:50:53;100.67;;;11.90;;
20393;SDS011;10356;50.544;9.642;2023-02-22T08:53:20;73.00;;;26.43;;
20393;SDS011;10356;50.544;9.642;2023-02-22T08:55:46;105.07;;;19.03;;
20393;SDS011;10356;50.544;9.642;2023-02-22T08:58:15;87.87;;;11.90;;
20393;SDS011;10356;50.544;9.642;2023-02-22T09:00:41;187.27;;;67.73;;
20393;SDS011;10356;50.544;9.642;2023-02-22T09:03:09;94.17;;;14.53;;
20393;SDS011;10356;50.544;9.642;2023-02-22T09:05:38;281.77;;;105.40;;
20393;SDS011;10356;50.544;9.642;2023-02-22T09:08:04;260.47;;;105.80;;
20393;SDS011;10356;50.544;9.642;2023-02-22T09:10:32;117.50;;;18.00;;
20393;SDS011;10356;50.544;9.642;2023-02-22T09:12:59;141.30;;;15.07;;
20393;SDS011;10356;50.544;9.642;2023-02-22T09:15:29;121.00;;;13.63;;
20393;SDS011;10356;50.544;9.642;2023-02-22T09:17:56;142.80;;;13.90;;
20393;SDS011;10356;50.544;9.642;2023-02-22T09:20:24;280.60;;;17.73;;
20393;SDS011;10356;50.544;9.642;2023-02-22T09:22:51;113.53;;;12.00;;
20393;SDS011;10356;50.544;9.642;2023-02-22T09:25:21;77.87;;;11.53;;
20393;SDS011;10356;50.544;9.642;2023-02-22T09:27:48;89.03;;;12.87;;
20393;SDS011;10356;50.544;9.642;2023-02-22T09:30:17;114.70;;;13.53;;
20393;SDS011;10356;50.544;9.642;2023-02-22T09:32:48;237.97;;;17.03;;
20393;SDS011;10356;50.544;9.642;2023-02-22T09:35:19;190.03;;;15.60;;
20393;SDS011;10356;50.544;9.642;2023-02-22T09:37:50;183.57;;;16.27;;
20393;SDS011;10356;50.544;9.642;2023-02-22T09:40:18;128.07;;;13.57;;
20393;SDS011;10356;50.544;9.642;2023-02-22T09:42:52;190.33;;;16.10;;
20393;SDS011;10356;50.544;9.642;2023-02-22T09:45:26;175.13;;;15.57;;
20393;SDS011;10356;50.544;9.642;2023-02-22T09:48:02;289.33;;;18.97;;
20393;SDS011;10356;50.544;9.642;2023-02-22T09:50:33;224.20;;;16.80;;
20393;SDS011;10356;50.544;9.642;2023-02-22T09:53:04;211.70;;;16.73;;
20393;SDS011;10356;50.544;9.642;2023-02-22T09:55:33;42.43;;;10.17;;
20393;SDS011;10356;50.544;9.642;2023-02-22T09:58:05;109.17;;;13.27;;
20393;SDS011;10356;50.544;9.642;2023-02-22T10:00:36;116.37;;;11.47;;
20393;SDS011;10356;50.544;9.642;2023-02-22T10:03:14;47.53;;;11.10;;
20393;SDS011;10356;50.544;9.642;2023-02-22T10:05:50;132.87;;;12.23;;
20393;SDS011;10356;50.544;9.642;2023-02-22T10:08:20;121.50;;;12.63;;
20393;SDS011;10356;50.544;9.642;2023-02-22T10:10:54;47.90;;;9.90;;
20393;SDS011;10356;50.544;9.642;2023-02-22T10:13:31;66.27;;;10.20;;
20393;SDS011;10356;50.544;9.642;2023-02-22T10:16:09;39.40;;;10.43;;
20393;SDS011;10356;50.544;9.642;2023-02-22T10:18:52;75.10;;;11.10;;
20393;SDS011;10356;50.544;9.642;2023-02-22T10:21:42;59.53;;;10.13;;
20393;SDS011;10356;50.544;9.642;2023-02-22T10:24:18;63.80;;;10.13;;
20393;SDS011;10356;50.544;9.642;2023-02-22T10:26:56;60.73;;;11.43;;
20393;SDS011;10356;50.544;9.642;2023-02-22T10:29:26;47.47;;;10.87;;
20393;SDS011;10356;50.544;9.642;2023-02-22T10:31:58;53.07;;;10.83;;
20393;SDS011;10356;50.544;9.642;2023-02-22T10:34:30;41.77;;;12.37;;
20393;SDS011;10356;50.544;9.642;2023-02-22T10:39:49;71.50;;;11.73;;
20393;SDS011;10356;50.544;9.642;2023-02-22T10:42:18;63.93;;;10.87;;
20393;SDS011;10356;50.544;9.642;2023-02-22T10:44:50;65.57;;;11.93;;
20393;SDS011;10356;50.544;9.642;2023-02-22T10:47:16;35.43;;;10.43;;
20393;SDS011;10356;50.544;9.642;2023-02-22T10:49:47;68.20;;;11.47;;
20393;SDS011;10356;50.544;9.642;2023-02-22T10:52:18;31.13;;;10.73;;
20393;SDS011;10356;50.544;9.642;2023-02-22T10:54:51;37.07;;;10.87;;
20393;SDS011;10356;50.544;9.642;2023-02-22T10:57:20;25.53;;;12.00;;
20393;SDS011;10356;50.544;9.642;2023-02-22T10:59:50;29.07;;;11.63;;
20393;SDS011;10356;50.544;9.642;2023-02-22T11:02:18;29.83;;;10.77;;
20393;SDS011;10356;50.544;9.642;2023-02-22T11:04:52;55.33;;;11.87;;
20393;SDS011;10356;50.544;9.642;2023-02-22T11:07:24;25.00;;;10.73;;
20393;SDS011;10356;50.544;9.642;2023-02-22T11:09:53;33.77;;;11.07;;
20393;SDS011;10356;50.544;9.642;2023-02-22T11:12:25;24.37;;;11.60;;
20393;SDS011;10356;50.544;9.642;2023-02-22T11:14:54;16.40;;;11.07;;
20393;SDS011;10356;50.544;9.642;2023-02-22T11:17:27;21.43;;;10.80;;
20393;SDS011;10356;50.544;9.642;2023-02-22T11:19:57;15.30;;;11.17;;
20393;SDS011;10356;50.544;9.642;2023-02-22T11:22:27;28.23;;;10.90;;
20393;SDS011;10356;50.544;9.642;2023-02-22T11:25:03;15.87;;;10.47;;
20393;SDS011;10356;50.544;9.642;2023-02-22T11:27:32;19.33;;;10.73;;
20393;SDS011;10356;50.544;9.642;2023-02-22T11:30:09;17.23;;;11.23;;
20393;SDS011;10356;50.544;9.642;2023-02-22T11:32:52;15.63;;;11.70;;
20393;SDS011;10356;50.544;9.642;2023-02-22T11:35:36;15.93;;;11.93;;
20393;SDS011;10356;50.544;9.642;2023-02-22T11:38:13;15.90;;;12.17;;
20393;SDS011;10356;50.544;9.642;2023-02-22T11:40:42;16.50;;;10.43;;
20393;SDS011;10356;50.544;9.642;2023-02-22T11:43:13;13.17;;;10.60;;
20393;SDS011;10356;50.544;9.642;2023-02-22T11:45:55;17.50;;;10.93;;
20393;SDS011;10356;50.544;9.642;2023-02-22T11:48:27;14.33;;;10.73;;
20393;SDS011;10356;50.544;9.642;2023-02-22T11:51:00;14.27;;;10.67;;
20393;SDS011;10356;50.544;9.642;2023-02-22T11:53:40;13.67;;;10.33;;
20393;SDS011;10356;50.544;9.642;2023-02-22T11:56:24;13.27;;;10.00;;
20393;SDS011;10356;50.544;9.642;2023-02-22T11:58:59;14.23;;;10.47;;
20393;SDS011;10356;50.544;9.642;2023-02-22T12:01:37;14.17;;;10.30;;
20393;SDS011;10356;50.544;9.642;2023-02-22T12:04:26;14.10;;;10.07;;
20393;SDS011;10356;50.544;9.642;2023-02-22T12:07:11;12.90;;;10.67;;
20393;SDS011;10356;50.544;9.642;2023-02-22T12:09:49;12.43;;;9.90;;
20393;SDS011;10356;50.544;9.642;2023-02-22T12:12:27;14.33;;;9.93;;
20393;SDS011;10356;50.544;9.642;2023-02-22T12:15:04;10.88;;;9.27;;
20393;SDS011;10356;50.544;9.642;2023-02-22T12:17:49;11.77;;;9.90;;
20393;SDS011;10356;50.544;9.642;2023-02-22T12:20:26;11.15;;;9.00;;
20393;SDS011;10356;50.544;9.642;2023-02-22T12:23:04;13.40;;;9.20;;
20393;SDS011;10356;50.544;9.642;2023-02-22T12:25:43;10.95;;;8.23;;
20393;SDS011;10356;50.544;9.642;2023-02-22T12:28:24;10.60;;;8.65;;
20393;SDS011;10356;50.544;9.642;2023-02-22T12:30:59;10.80;;;9.30;;
20393;SDS011;10356;50.544;9.642;2023-02-22T12:33:34;10.23;;;8.55;;
20393;SDS011;10356;50.544;9.642;2023-02-22T12:36:10;11.30;;;8.63;;
20393;SDS011;10356;50.544;9.642;2023-02-22T12:38:42;12.02;;;8.40;;
20393;SDS011;10356;50.544;9.642;2023-02-22T12:41:14;9.60;;;8.25;;
20393;SDS011;10356;50.544;9.642;2023-02-22T12:43:52;10.93;;;8.25;;
20393;SDS011;10356;50.544;9.642;2023-02-22T12:46:26;9.25;;;7.85;;
20393;SDS011;10356;50.544;9.642;2023-02-22T12:48:59;11.15;;;7.30;;
20393;SDS011;10356;50.544;9.642;2023-02-22T12:51:43;8.30;;;7.03;;
20393;SDS011;10356;50.544;9.642;2023-02-22T12:54:17;8.27;;;6.85;;
20393;SDS011;10356;50.544;9.642;2023-02-22T12:56:48;10.10;;;6.50;;
20393;SDS011;10356;50.544;9.642;2023-02-22T12:59:32;11.30;;;7.85;;
20393;SDS011;10356;50.544;9.642;2023-02-22T13:02:10;12.63;;;8.55;;
20393;SDS011;10356;50.544;9.642;2023-02-22T13:04:42;9.48;;;7.40;;
20393;SDS011;10356;50.544;9.642;2023-02-22T13:07:15;8.50;;;5.93;;
20393;SDS011;10356;50.544;9.642;2023-02-22T13:09:53;9.60;;;6.80;;
20393;SDS011;10356;50.544;9.642;2023-02-22T13:12:33;8.00;;;6.50;;
20393;SDS011;10356;50.544;9.642;2023-02-22T13:15:09;7.68;;;5.43;;
20393;SDS011;10356;50.544;9.642;2023-02-22T13:17:50;8.50;;;6.20;;
20393;SDS011;10356;50.544;9.642;2023-02-22T13:20:28;11.10;;;6.05;;
20393;SDS011;10356;50.544;9.642;2023-02-22T13:23:04;8.18;;;5.30;;
20393;SDS011;10356;50.544;9.642;2023-02-22T13:25:39;9.55;;;5.43;;
20393;SDS011;10356;50.544;9.642;2023-02-22T13:28:15;7.65;;;5.28;;
20393;SDS011;10356;50.544;9.642;2023-02-22T13:30:49;6.93;;;4.80;;
20393;SDS011;10356;50.544;9.642;2023-02-22T13:33:30;9.07;;;4.68;;
20393;SDS011;10356;50.544;9.642;2023-02-22T13:36:12;6.65;;;4.43;;
20393;SDS011;10356;50.544;9.642;2023-02-22T13:38:56;5.60;;;4.20;;
20393;SDS011;10356;50.544;9.642;2023-02-22T13:41:37;6.57;;;4.68;;
20393;SDS011;10356;50.544;9.642;2023-02-22T13:44:30;6.30;;;4.60;;
20393;SDS011;10356;50.544;9.642;2023-02-22T13:47:32;5.70;;;4.22;;
20393;SDS011;10356;50.544;9.642;2023-02-22T13:50:19;5.32;;;3.85;;
20393;SDS011;10356;50.544;9.642;2023-02-22T13:52:57;7.75;;;4.00;;
20393;SDS011;10356;50.544;9.642;2023-02-22T13:55:29;6.60;;;4.20;;
20393;SDS011;10356;50.544;9.642;2023-02-22T13:58:01;7.20;;;4.70;;
20393;SDS011;10356;50.544;9.642;2023-02-22T14:00:40;5.03;;;3.95;;
20393;SDS011;10356;50.544;9.642;2023-02-22T14:06:34;6.30;;;3.85;;
20393;SDS011;10356;50.544;9.642;2023-02-22T14:09:06;5.43;;;3.85;;
20393;SDS011;10356;50.544;9.642;2023-02-22T14:14:11;6.45;;;3.38;;
20393;SDS011;10356;50.544;9.642;2023-02-22T14:16:41;4.57;;;3.70;;
20393;SDS011;10356;50.544;9.642;2023-02-22T14:19:14;6.00;;;3.63;;
20393;SDS011;10356;50.544;9.642;2023-02-22T14:21:56;5.20;;;3.58;;
20393;SDS011;10356;50.544;9.642;2023-02-22T14:24:26;5.10;;;3.92;;
20393;SDS011;10356;50.544;9.642;2023-02-22T14:26:55;5.35;;;3.65;;
20393;SDS011;10356;50.544;9.642;2023-02-22T14:29:25;7.47;;;3.53;;
20393;SDS011;10356;50.544;9.642;2023-02-22T14:31:55;6.47;;;3.70;;
20393;SDS011;10356;50.544;9.642;2023-02-22T14:34:38;4.60;;;3.58;;
20393;SDS011;10356;50.544;9.642;2023-02-22T14:37:07;5.32;;;3.95;;
20393;SDS011;10356;50.544;9.642;2023-02-22T14:39:38;4.32;;;3.50;;
20393;SDS011;10356;50.544;9.642;2023-02-22T14:42:09;5.13;;;3.92;;
20393;SDS011;10356;50.544;9.642;2023-02-22T14:44:43;4.57;;;3.70;;
20393;SDS011;10356;50.544;9.642;2023-02-22T14:47:19;4.65;;;3.75;;
20393;SDS011;10356;50.544;9.642;2023-02-22T14:49:52;7.25;;;4.53;;
20393;SDS011;10356;50.544;9.642;2023-02-22T14:52:22;5.15;;;3.78;;
20393;SDS011;10356;50.544;9.642;2023-02-22T14:54:55;4.40;;;3.53;;
20393;SDS011;10356;50.544;9.642;2023-02-22T14:57:42;4.75;;;3.78;;
20393;SDS011;10356;50.544;9.642;2023-02-22T15:00:19;6.22;;;4.15;;
20393;SDS011;10356;50.544;9.642;2023-02-22T15:02:55;5.43;;;3.83;;